Tama, Iowa
Current Conditions -  °F | °C
As of 10:15 PM on Tuesday 21 Oct 2014 (Local Time) from KGGI Reporting Station
Clear Clear  
Wind Chill: 42°   Ceiling: Unl
Heat Index: 46°   Visibility: 10mi
Dew Point: 38°   Wind: 8mph
Humidity: 73%   Direction: 100°E
Pressure: 30.2"   Gusts: NA
Location:  41.97°N, 92.58°W
Report Text: KGGI 220315Z AUTO 10007KT 10SM CLR 08/03 A3020 RMK AO2 T00780033
Loading
Personal Weather Stations






























Interactive Weather Map
Tropical Storm Tracking
New forecast layout! Learn more

10-Day Weather Forecast

Advertisements
Track Severe Weather on mobile